Tiempo atmosférico en la estación meteorológica de Cillórigo de Liébana, Tama, Cantabria (250 m.)



Fecha
DESCASC
Temp. máxima en grados centígrados (hora)
DESCASC
Temp. mínima en grados centígrados (hora)
DESCASC
Temp. media en grados centígrados
DESCASC
Racha de viento máxima en m/sg (hora)
DESCASC
Velocidad máxima media en intervalos de 10 minutos(hora)
DESCASC
Precipitaciones diarias en mm
DESCASC
Precipitaciones de 00:00 a 06:00 en mm
DESCASC
Precipitaciones de 06:00 a 12:00 en mm
DESCASC
Precipitaciones de 12:00 a 18:00 en mm
DESCASC
Precipitaciones de 18:00 a 24:00 en mm
DESCASC
20-10-2019 11.7 (00:00) 8.4 (23:59) 10 4.17 (03:30) 2.22 (23:59) 17.6 8 8 1.4 0.2
19-10-2019 14.8 (14:50) 11.7 (23:40) 13.3 7.5 (05:30) 4.72 (04:30) 24.6 0.4 1.2 6.2 16.8
18-10-2019 18.9 (15:00) 12.1 (01:20) 15.5 6.39 (17:30) 3.61 (17:30) 0.2 0 0 0 0.2
17-10-2019 24.7 (15:20) 10.9 (00:00) 17.8 10 (15:10) 4.72 (15:40) 1.8 1.8 0 0 0
16-10-2019 22.5 (16:30) 13.7 (00:00) 18.1 10.56 (14:00) 5.56 (23:30) 1.4 0 0.2 0.2 1
15-10-2019 20.6 (15:50) 4.6 (00:00) 12.6 9.44 (18:30) 5.28 (18:40) 0 0 0 0 0
14-10-2019 20.3 (14:10) 9.4 (00:00) 14.8 9.44 (09:20) 4.72 (09:10) 2.6 0 2.2 0.2 0.2
13-10-2019 27.7 (00:20) 12.9 (00:00) 20.3 16.94 (01:10) 7.78 (02:00) 0 0 0 0 0
12-10-2019 31 (16:40) 12.5 (00:00) 21.8 10.83 (17:20) 5.28 (17:30) 0 0 0 0 0
11-10-2019 31.7 (16:30) 5.6 (00:00) 18.7 10.28 (16:50) 3.89 (20:00) 0 0 0 0 0
10-10-2019 22 (15:30) 8.5 (00:00) 15.3 8.06 (17:20) 4.17 (17:20) -- -- -- -- --
09-10-2019 20.2 (14:50) 11.9 (00:00) 16.1 9.17 (16:30) 4.17 (17:00) -- -- -- -- --
08-10-2019 26.4 (14:30) 7.5 (00:00) 16.9 12.5 (17:00) 5.83 (16:00) -- 0 0 -- --
07-10-2019 25.3 (15:30) 9.9 (00:00) 17.6 9.17 (17:50) 4.44 (17:30) 0 0 0 0 0
06-10-2019 21.5 (15:10) 11.3 (00:00) 16.4 10 (15:40) 5.83 (15:40) 0 0 0 0 0
05-10-2019 20.6 (14:30) 14.4 (00:00) 17.5 11.67 (16:50) 6.11 (17:50) 0 0 0 0 0
04-10-2019 21 (13:50) 8.2 (00:00) 14.6 11.67 (15:30) 6.94 (15:50) 0 0 0 0 0
03-10-2019 24.9 (16:10) 9.2 (00:00) 17 10 (17:10) 5.56 (18:30) 0 0 0 0 0
02-10-2019 21.4 (15:00) 10.3 (00:00) 15.8 9.72 (16:40) 5 (17:20) 0 0 0 0 0
01-10-2019 23.5 (13:50) 12.8 (00:00) 18.2 12.22 (17:20) 5.56 (17:40) 0 0 0 0 0
30-09-2019 28.1 (16:50) 8.9 (00:00) 18.5 9.44 (19:30) 4.17 (18:10) 0 0 0 0 0
29-09-2019 27.6 (14:30) 6.6 (00:00) 17.1 13.06 (15:40) 5.83 (14:50) 0 0 0 0 0
28-09-2019 24.1 (15:20) 12.5 (00:00) 18.3 8.61 (18:20) 4.17 (17:00) 0 0 0 0 0
27-09-2019 24.4 (15:10) 15.1 (00:00) 19.8 13.33 (16:50) 7.22 (16:40) 0 0 0 0 0
26-09-2019 23.9 (16:10) 14.3 (00:00) 19.1 8.89 (16:30) 4.44 (16:30) 0 0 0 0 0
25-09-2019 22.6 (16:20) 12.1 (00:00) 17.4 7.78 (15:50) 3.61 (15:50) 0 0 0 0 0
24-09-2019 24.7 (04:50) 15.8 (00:00) 20.3 12.5 (04:50) 7.22 (04:50) 0.4 0 0.2 0.2 0
23-09-2019 21.7 (14:50) 10.6 (00:00) 16.2 7.22 (23:30) 5 (23:59) 0 0 0 0 0
22-09-2019 23.1 (14:00) 12.5 (00:00) 17.8 9.72 (16:00) 5.28 (16:20) 0.8 0.2 0 0 0.6

Gráficas

Temp. máximas Temp. mínimas Temp. medias Precipitaciones Rachas de viento máximas Velocidades máximas media en intervalos de 10 minutos

Datos horarios

Fecha y hora oficial Temperatura (ºC) Velocidad del viento (km/h) Dirección del viento Racha (km/h) Dirección de racha Precipitación (mm) Presión (hPa) Tendencia (hPa) Humedad (%)
2019-10-21 23:00:00 8.1 2 Sudeste 5 Sudeste 0 -- -- 94
2019-10-21 22:00:00 8.3 0 Calma 5 Sudeste 0 -- -- 93
2019-10-21 21:00:00 8.5 0 Calma 5 Sur 0 -- -- 91
2019-10-21 20:00:00 9.7 0 Calma 10 Este 0 -- -- 85
2019-10-21 19:00:00 11.8 4 Nordeste 12 Noroeste 0 -- -- 78
2019-10-21 18:00:00 12.4 5 Norte 28 Norte 0 -- -- 72
2019-10-21 17:00:00 14.1 14 Norte 32 Norte 0 -- -- 62
2019-10-21 16:00:00 15.6 14 Noroeste 29 Noroeste 0 -- -- 57
2019-10-21 15:00:00 15.6 5 Norte 11 Norte 0 -- -- 61
2019-10-21 14:00:00 14.1 3 Noroeste 6 Oeste 0 -- -- 65
2019-10-21 13:00:00 11.9 3 Noroeste 5 Noroeste 0 -- -- 74
2019-10-21 12:00:00 8.7 0 Calma 5 Noroeste 0 -- -- 87
2019-10-21 11:00:00 7.4 2 Nordeste 8 Sur 0 -- -- 91
2019-10-21 10:00:00 6 0 Calma 6 Sudeste 0 -- -- 95
2019-10-21 09:00:00 5.6 4 Sudeste 10 Sudeste 0 -- -- 95
2019-10-21 08:00:00 6.2 0 Calma 9 Sudeste 0 -- -- 95
2019-10-21 07:00:00 6.5 8 Sudeste 13 Sudeste 0 -- -- 95
2019-10-21 06:00:00 6.8 6 Sudeste 13 Sudeste 0 -- -- 95
2019-10-21 05:00:00 7 4 Sur 8 Sur 0 -- -- 95
2019-10-21 04:00:00 7.4 2 Sudoeste 10 Sudeste 0 -- -- 94
2019-10-21 03:00:00 7.5 2 Sur 11 Sudeste 0 -- -- 95
2019-10-21 02:00:00 8 4 Sur 9 Sudeste 0 -- -- 94
2019-10-21 01:00:00 8.1 8 Sudeste 13 Sudeste 0 -- -- 94
2019-10-21 00:00:00 8.4 8 Sudeste 11 Sur 0 -- -- 94
2019-10-20 23:00:00 9 7 Sudeste 12 Sudeste 0 -- -- 93
2019-10-20 22:00:00 9.5 4 Sudeste 11 Sudeste 0 -- -- 95
2019-10-20 21:00:00 9.6 2 Sudoeste 9 Oeste 0.2 -- -- 95
2019-10-20 20:00:00 10 2 Oeste 8 Sudoeste 0 -- -- 94
2019-10-20 19:00:00 11.3 2 Sur 4 Sudeste 0 -- -- 91
2019-10-20 18:00:00 11.4 0 Calma 7 Sudeste 0 -- -- 91
2019-10-20 17:00:00 11.3 0 Calma 5 Oeste 0 -- -- 88
2019-10-20 16:00:00 10.8 3 Norte 5 Norte 0 -- -- 89
2019-10-20 15:00:00 10.6 2 Noroeste 5 Oeste 0.2 -- -- 90
2019-10-20 14:00:00 10.1 3 Nordeste 5 Norte 1 -- -- 90
2019-10-20 13:00:00 9.7 3 Este 5 Este 0.2 -- -- 93
2019-10-20 12:00:00 9.1 0 Calma 3 Sudeste 1.2 -- -- 95
2019-10-20 11:00:00 8.7 0 Calma 5 Norte 1.6 -- -- 96
2019-10-20 10:00:00 8.6 0 Calma 5 Noroeste 2.2 -- -- 95
2019-10-20 09:00:00 8.8 3 Sur 9 Sudoeste 1.6 -- -- 94
2019-10-20 08:00:00 9.5 3 Sur 8 Sur 1 -- -- 95
2019-10-20 07:00:00 9.8 2 Sur 6 Sur 0.4 -- -- 95
2019-10-20 06:00:00 10.5 2 Sudeste 4 Sur 1.2 -- -- 96
2019-10-20 05:00:00 10.7 0 Calma 9 Sudeste 1.4 -- -- 96
2019-10-20 04:00:00 10.8 3 Sudoeste 15 Noroeste 2 -- -- 96
2019-10-20 03:00:00 11.1 4 Norte 6 Norte 0.2 -- -- 97
2019-10-20 02:00:00 11.2 0 Calma 4 Sudoeste 0.2 -- -- 96
2019-10-20 01:00:00 11.4 0 Calma 8 Sur 3 -- -- 96
2019-10-20 00:00:00 11.7 4 Sur 8 Sur 2.4 -- -- 96
2019-10-19 23:00:00 12.1 0 Calma 4 Sudeste 1.8 -- -- 97
2019-10-19 22:00:00 12.4 0 Calma 4 Oeste 2 -- -- 97
2019-10-19 21:00:00 12.6 0 Calma 4 Sudoeste 1.8 -- -- 96
2019-10-19 20:00:00 12.8 0 Calma 8 Sur 4.8 -- -- 95
2019-10-19 19:00:00 13.2 2 Sudoeste 4 Sudoeste 4 -- -- 94
2019-10-19 18:00:00 13.9 0 Calma 9 Norte 1.4 -- -- 92
2019-10-19 17:00:00 14.5 0 Calma 4 Sudeste 1.6 -- -- 93
2019-10-19 16:00:00 14.6 2 Sur 3 Oeste 1.4 -- -- 91
2019-10-19 15:00:00 14.7 0 Calma 3 Oeste 0.6 -- -- 91
2019-10-19 14:00:00 14.6 0 Calma 3 Norte 0.8 -- -- 90
2019-10-19 13:00:00 14.1 2 Oeste 4 Sudoeste 0.4 -- -- 90
2019-10-19 12:00:00 13.4 0 Calma 3 Norte 0.4 -- -- 93
2019-10-19 11:00:00 12.8 0 Calma 3 Noroeste 0.8 -- -- 94
2019-10-19 10:00:00 12.3 0 Calma 4 Noroeste 0 -- -- 94
2019-10-19 09:00:00 11.8 0 Calma 8 Oeste 0 -- -- 94
2019-10-19 08:00:00 12 3 Nordeste 7 Nordeste 0 -- -- 93
2019-10-19 07:00:00 12.7 2 Sudoeste 19 Sudeste 0 -- -- 90
2019-10-19 06:00:00 13.1 11 Sudeste 27 Sudeste 0 -- -- 87
2019-10-19 05:00:00 12.9 14 Sur 26 Sur 0 -- -- 88
2019-10-19 04:00:00 12.7 10 Sudeste 22 Sur 0.2 -- -- 91
2019-10-19 03:00:00 13.1 13 Sudeste 21 Sudeste 0.2 -- -- 88
2019-10-19 02:00:00 13.5 9 Sudeste 21 Sudeste 0 -- -- 84
2019-10-19 01:00:00 13.3 6 Sudeste 18 Sudeste 0 -- -- 86
2019-10-19 00:00:00 13.2 2 Sur 8 Sudeste 0.2 -- -- 91
2019-10-18 23:00:00 13.3 0 Calma 8 Sudeste 0 -- -- 88
2019-10-18 22:00:00 13.8 0 Calma 6 Sudeste 0 -- -- 86
2019-10-18 21:00:00 14.5 0 Calma 6 Sudoeste 0 -- -- 83
2019-10-18 20:00:00 15.2 2 Noroeste 5 Sudeste 0 -- -- 80
2019-10-18 19:00:00 16.3 0 Calma 14 Noroeste 0 -- -- 73
2019-10-18 18:00:00 16.9 5 Noroeste 23 Norte 0 -- -- 70
2019-10-18 17:00:00 17.9 5 Norte 20 Nordeste 0 -- -- 65
2019-10-18 16:00:00 18.5 7 Norte 17 Norte 0 -- -- 60
2019-10-18 15:00:00 18.9 5 Norte 17 Norte 0 -- -- 58
2019-10-18 14:00:00 18 6 Norte 14 Noroeste 0 -- -- 62
2019-10-18 13:00:00 17.6 4 Noroeste 12 Noroeste 0 -- -- 62
2019-10-18 12:00:00 16.1 0 Calma 5 Norte 0 -- -- 73
2019-10-18 11:00:00 14.5 0 Calma 2 Norte 0 -- -- 87
2019-10-18 10:00:00 13.6 0 Calma -- -- 0 -- -- 92
2019-10-18 09:00:00 13.3 0 Calma -- -- 0 -- -- 93
2019-10-18 08:00:00 13.4 0 Calma 2 Oeste 0 -- -- 92
2019-10-18 07:00:00 13.4 0 Calma 3 Sur 0 -- -- 92
2019-10-18 06:00:00 13.3 0 Calma 3 Oeste 0 -- -- 91
2019-10-18 05:00:00 13.2 0 Calma 5 Norte 0 -- -- 91
2019-10-18 04:00:00 13.1 0 Calma 5 Sudeste 0 -- -- 91
2019-10-18 03:00:00 13.1 2 Oeste 13 Sudeste 0 -- -- 89
2019-10-18 02:00:00 12.3 3 Sudeste 7 Sur 0 -- -- 93
2019-10-18 01:00:00 12.3 0 Calma 12 Sudeste 0 -- -- 91
2019-10-18 00:00:00 12.9 8 Sudeste 14 Sudeste 0 -- -- 89
2019-10-17 23:00:00 13.1 6 Sur 10 Sur 0 -- -- 89
2019-10-17 22:00:00 13.8 2 Sur 7 Sur 0 -- -- 86
2019-10-17 21:00:00 14.7 2 Sur 9 Sudoeste 0 -- -- 83
2019-10-17 20:00:00 15.9 0 Calma 25 Norte 0 -- -- 77
2019-10-17 19:00:00 16.3 15 Noroeste 35 Norte 0 -- -- 76
2019-10-17 18:00:00 17.6 10 Norte 30 Norte 0 -- -- 73
2019-10-17 17:00:00 18.9 12 Noroeste 36 Norte 0 -- -- 69
2019-10-17 16:00:00 20.2 12 Noroeste 36 Norte 0 -- -- 65
2019-10-17 15:00:00 24.5 12 Sur 30 Sudoeste 0 -- -- 35
2019-10-17 14:00:00 24.2 9 Sur 24 Sudeste 0 -- -- 37
2019-10-17 13:00:00 21.4 6 Este 20 Este 0 -- -- 49
2019-10-17 12:00:00 17.6 0 Calma 5 Sudoeste 0 -- -- 74
2019-10-17 11:00:00 14.1 0 Calma 5 Este 0 -- -- 97
2019-10-17 10:00:00 11.3 3 Este 9 Oeste 0 -- -- 98
2019-10-17 09:00:00 11 5 Este 9 Oeste 0 -- -- 98
2019-10-17 08:00:00 11.5 0 Calma 6 Sudeste 0 -- -- 96
2019-10-17 07:00:00 12.4 2 Sudoeste 6 Sudeste 0 -- -- 94
2019-10-17 06:00:00 13.3 3 Norte 14 Sur 0 -- -- 93
2019-10-17 05:00:00 14.1 12 Sur 21 Sur 0.2 -- -- 93
2019-10-17 04:00:00 14.3 10 Sudeste 17 Sudeste 0.4 -- -- 92
2019-10-17 03:00:00 14.3 10 Sur 23 Sur 0.6 -- -- 92
2019-10-17 02:00:00 14.8 15 Sudeste 24 Sudoeste 0.4 -- -- 88
2019-10-17 01:00:00 15.1 16 Sudeste 28 Sur 0.2 -- -- 85
2019-10-17 00:00:00 15.4 15 Sudeste 28 Sudeste 0 -- -- 83
2019-10-16 23:00:00 14.9 14 Sur 28 Sur 0 -- -- 86
2019-10-16 22:00:00 14.9 12 Sur 21 Sur 0.4 -- -- 87
2019-10-16 21:00:00 15.4 11 Sur 19 Sur 0 -- -- 84
2019-10-16 20:00:00 15.8 4 Sudeste 12 Oeste 0.2 -- -- 79
2019-10-16 19:00:00 17.2 5 Sur 21 Sudeste 0.4 -- -- 72
2019-10-16 18:00:00 20.2 9 Sur 28 Sur 0 -- -- 50
2019-10-16 17:00:00 21.1 13 Sur 31 Sur 0 -- -- 47
2019-10-16 16:00:00 21.6 16 Sur 33 Sudeste 0 -- -- 46
2019-10-16 15:00:00 20.9 16 Sudeste 30 Sur 0 -- -- 48
2019-10-16 14:00:00 21.2 15 Sur 38 Sur 0.2 -- -- 46
2019-10-16 13:00:00 21 16 Sudeste 31 Sudeste 0 -- -- 48
2019-10-16 12:00:00 17.5 5 Sudoeste 27 Sur 0 -- -- 59
2019-10-16 11:00:00 14.4 7 Sur 21 Sur 0 -- -- 77
2019-10-16 10:00:00 14 4 Sudeste 20 Sur 0 -- -- 80
2019-10-16 09:00:00 14.7 6 Sur 22 Sudoeste 0.2 -- -- 75
2019-10-16 08:00:00 16.3 5 Sur 17 Sudoeste 0 -- -- 62
2019-10-16 07:00:00 16.7 9 Sur 23 Sur 0 -- -- 56
2019-10-16 06:00:00 16.3 10 Sur 19 Sur 0 -- -- 57
2019-10-16 05:00:00 15.8 6 Sur 21 Sudoeste 0 -- -- 60
2019-10-16 04:00:00 15.6 6 Sudoeste 15 Sur 0 -- -- 60
2019-10-16 03:00:00 14.6 9 Sudeste 17 Sur 0 -- -- 62
2019-10-16 02:00:00 14.8 8 Sudeste 15 Sur 0 -- -- 60
2019-10-16 01:00:00 15.4 7 Sur 15 Sudoeste 0 -- -- 57
2019-10-16 00:00:00 15.9 5 Sudoeste 18 Sur 0 -- -- 53
2019-10-15 23:00:00 15.8 5 Sur 14 Sudoeste 0 -- -- 55
2019-10-15 22:00:00 15.9 3 Sur 12 Sudoeste 0 -- -- 58
2019-10-15 21:00:00 16.8 5 Sudoeste 16 Sur 0 -- -- 51
2019-10-15 20:00:00 17.5 3 Sudoeste 31 Sur 0 -- -- 46
2019-10-15 19:00:00 18.2 15 Sur 34 Sur 0 -- -- 42
2019-10-15 18:00:00 19.6 13 Sur 31 Sudeste 0 -- -- 39
2019-10-15 17:00:00 19.3 10 Sur 23 Oeste 0 -- -- 38
2019-10-15 16:00:00 20.6 7 Sudoeste 14 Sur 0 -- -- 37
2019-10-15 15:00:00 19.8 3 Nordeste 8 Oeste 0 -- -- 37
2019-10-15 14:00:00 19.1 2 Sudoeste 6 Sudoeste 0 -- -- 41
2019-10-15 13:00:00 15.7 3 Noroeste 5 Noroeste 0 -- -- 56
2019-10-15 12:00:00 12.6 2 Este 6 Este 0 -- -- 64
2019-10-15 11:00:00 9 3 Este 4 Sur 0 -- -- 83
2019-10-15 10:00:00 5.3 0 Calma 5 Sur 0 -- -- 97
2019-10-15 09:00:00 5 0 Calma 6 Sudeste 0 -- -- 97
2019-10-15 08:00:00 4.7 0 Calma 6 Oeste 0 -- -- 97
2019-10-15 07:00:00 4.8 2 Sudoeste 8 Sudeste 0 -- -- 96
2019-10-15 06:00:00 5.4 3 Noroeste 6 Oeste 0 -- -- 96
2019-10-15 05:00:00 6 2 Sudeste 7 Noroeste 0 -- -- 96
2019-10-15 04:00:00 6.8 2 Sur 6 Sudoeste 0 -- -- 95
2019-10-15 03:00:00 7.9 0 Calma 5 Noroeste 0 -- -- 93
2019-10-15 02:00:00 9.3 2 Sudoeste 9 Oeste 0 -- -- 92
2019-10-15 01:00:00 9.5 4 Sudeste 9 Sur 0 -- -- 92
2019-10-15 00:00:00 9.4 3 Norte 8 Sudeste 0 -- -- 93
2019-10-14 23:00:00 10.2 0 Calma 10 Sudeste 0 -- -- 91
2019-10-14 22:00:00 10.5 4 Sur 6 Este 0 -- -- 90
2019-10-14 21:00:00 11.6 3 Oeste 14 Sudeste 0 -- -- 83
2019-10-14 20:00:00 13 4 Sur 16 Nordeste 0 -- -- 79
2019-10-14 19:00:00 13.5 7 Sudeste 29 Sur 0.2 -- -- 76
2019-10-14 18:00:00 18 4 Sudeste 18 Sur 0 -- -- 51
2019-10-14 17:00:00 18.7 7 Sur 27 Sur 0 -- -- 46
2019-10-14 16:00:00 18.7 12 Sur 31 Sudoeste 0 -- -- 45
2019-10-14 15:00:00 19 8 Sur 28 Sudeste 0 -- -- 49
2019-10-14 14:00:00 20.1 12 Sur 32 Sur 0 -- -- 44
2019-10-14 13:00:00 16 3 Oeste 12 Sudeste 0.2 -- -- 77
2019-10-14 12:00:00 12.9 3 Noroeste 12 Oeste -- -- -- 91
2019-10-14 11:00:00 12.9 5 Noroeste 21 Noroeste -- -- -- 86
2019-10-14 10:00:00 14 9 Norte 34 Norte -- -- -- 73
2019-10-14 09:00:00 15 9 Noroeste 30 Norte -- -- -- 74
2019-10-14 08:00:00 15.3 7 Noroeste 30 Norte -- -- -- 77
2019-10-14 07:00:00 16.6 12 Norte 28 Nordeste -- -- -- 78
2019-10-14 06:00:00 13.1 3 Noroeste 9 Sudeste -- -- -- 94
2019-10-14 05:00:00 12.7 3 Oeste 10 Sudeste -- -- -- 95
2019-10-14 04:00:00 12.2 4 Oeste 8 Este -- -- -- 96
2019-10-14 03:00:00 11.4 4 Noroeste 8 Oeste -- -- -- 96
2019-10-14 02:00:00 11.3 0 Calma 7 Este -- -- -- 94
2019-10-14 01:00:00 11.9 2 Noroeste 9 Sudeste -- -- -- 92
2019-10-14 00:00:00 12.9 3 Norte 10 Sur -- -- -- 91
2019-10-13 23:00:00 14.1 3 Sur 8 Sur -- -- -- 87
2019-10-13 22:00:00 15.3 3 Sur 8 Nordeste -- -- -- 83
2019-10-13 21:00:00 16.7 2 Norte 18 Norte -- -- -- 80
2019-10-13 20:00:00 18.5 7 Norte 21 Nordeste -- -- -- 76
2019-10-13 19:00:00 20.6 11 Nordeste 18 Nordeste -- -- -- 65
2019-10-13 18:00:00 23.7 5 Sudoeste 21 Sudoeste -- -- -- 46
2019-10-13 17:00:00 23.3 13 Sur 28 Sudeste -- -- -- 46
2019-10-13 16:00:00 23.4 19 Sur 36 Sur -- -- -- 46
2019-10-13 15:00:00 24.2 13 Sur 30 Sudoeste -- -- -- 43
2019-10-13 14:00:00 25.1 13 Sur 39 Oeste 0 -- -- 41
2019-10-13 13:00:00 24.3 17 Oeste 42 Oeste 0 -- -- 42
2019-10-13 12:00:00 23.8 14 Oeste 41 Sur 0 -- -- 43
2019-10-13 11:00:00 22.5 12 Sur 41 Sur 0 -- -- 40
2019-10-13 10:00:00 21.9 14 Sur 46 Sur 0 -- -- 38
2019-10-13 09:00:00 22.7 17 Sudoeste 39 Sudoeste 0 -- -- 36
2019-10-13 08:00:00 23.4 15 Sur 34 Sudoeste 0 -- -- 37
2019-10-13 07:00:00 23.9 14 Sudoeste 40 Sudoeste 0 -- -- 38
2019-10-13 06:00:00 24.3 15 Sudoeste 41 Sur 0 -- -- 37
2019-10-13 05:00:00 24.6 10 Sudoeste 25 Sudoeste 0 -- -- 36
2019-10-13 04:00:00 25.2 10 Sudoeste 29 Sudoeste 0 -- -- 35
2019-10-13 03:00:00 25.9 13 Sudoeste 39 Sur 0 -- -- 34
2019-10-13 02:00:00 27.2 28 Sur 61 Sudeste 0 -- -- 30
2019-10-13 01:00:00 27.7 25 Sur 56 Sur 0 -- -- 30
2019-10-13 00:00:00 27.2 12 Sudoeste 38 Sudeste 0 -- -- 31
2019-10-12 23:00:00 18.9 6 Norte 18 Noroeste 0 -- -- 74
2019-10-12 22:00:00 19.8 8 Noroeste 18 Noroeste 0 -- -- 69
2019-10-12 21:00:00 20.6 6 Noroeste 18 Noroeste 0 -- -- 65
2019-10-12 20:00:00 23.3 6 Noroeste 14 Sur 0 -- -- 53
2019-10-12 19:00:00 28.4 5 Sur 32 Sur 0 -- -- 31
2019-10-12 18:00:00 29.6 12 Sur 39 Sudeste 0 -- -- 30
2019-10-12 17:00:00 30.6 10 Sur 28 Sudeste 0 -- -- 29
2019-10-12 16:00:00 30.6 7 Sudoeste 31 Sudoeste 0 -- -- 30
2019-10-12 15:00:00 30 9 Oeste 34 Sudoeste 0 -- -- 30
2019-10-12 14:00:00 29.7 9 Oeste 31 Oeste 0 -- -- 31
2019-10-12 13:00:00 27.7 10 Oeste 29 Sudoeste 0 -- -- 34
2019-10-12 12:00:00 26.2 6 Noroeste 19 Noroeste 0 -- -- 36
2019-10-12 11:00:00 17.5 5 Norte 13 Oeste 0 -- -- 81
2019-10-12 10:00:00 13 2 Oeste 9 Oeste 0 -- -- 96
2019-10-12 09:00:00 12.5 0 Calma 5 Este 0 -- -- 95
2019-10-12 08:00:00 12.7 3 Este 9 Oeste 0 -- -- 95
2019-10-12 07:00:00 12.8 2 Sudoeste 8 Oeste 0 -- -- 94
2019-10-12 06:00:00 13 3 Noroeste 8 Oeste 0 -- -- 93
2019-10-12 05:00:00 13.2 0 Calma 6 Oeste 0 -- -- 93
2019-10-12 04:00:00 13.5 3 Sudeste 6 Oeste 0 -- -- 92
2019-10-12 03:00:00 13.5 2 Noroeste 9 Oeste 0 -- -- 92
2019-10-12 02:00:00 13.7 0 Calma 4 Este 0 -- -- 90
2019-10-12 01:00:00 14.9 0 Calma 4 Sudoeste 0 -- -- 87
2019-10-12 00:00:00 15.2 0 Calma 4 Sudoeste 0 -- -- 86
2019-10-11 23:00:00 15.5 3 Oeste 10 Este 0 -- -- 82
2019-10-11 22:00:00 17.6 5 Nordeste 17 Nordeste 0 -- -- 75
2019-10-11 21:00:00 18.8 4 Norte 18 Norte 0 -- -- 68
2019-10-11 20:00:00 20.8 14 Nordeste 22 Nordeste 0 -- -- 61
2019-10-11 19:00:00 23.7 13 Norte 23 Nordeste 0 -- -- 52
2019-10-11 18:00:00 30.8 6 Sudoeste 24 Sudeste 0 -- -- 29
2019-10-11 17:00:00 31.6 5 Oeste 37 Sur 0 -- -- 28
2019-10-11 16:00:00 31.4 10 Sudoeste 30 Sur 0 -- -- 28
2019-10-11 15:00:00 30.6 10 Sudoeste 31 Sudeste 0 -- -- 29
2019-10-11 14:00:00 25.6 7 Noroeste 17 Norte 0 -- -- 42
2019-10-11 13:00:00 21 3 Noroeste 10 Oeste 0 -- -- 54
2019-10-11 12:00:00 16.2 0 Calma 6 Sudeste 0 -- -- 67
2019-10-11 11:00:00 10.9 0 Calma 3 Sudeste 0 -- -- 96
2019-10-11 10:00:00 6 0 Calma 4 Este 0 -- -- 98
2019-10-11 09:00:00 5.7 0 Calma 5 Este 0 -- -- 98
2019-10-11 08:00:00 5.9 0 Calma 4 Sudeste 0 -- -- 97
2019-10-11 07:00:00 6.2 0 Calma 4 Oeste 0 -- -- 97
2019-10-11 06:00:00 6.5 0 Calma 4 Oeste 0 -- -- 97
2019-10-11 05:00:00 6.9 2 Nordeste 4 Este 0 -- -- 96
2019-10-11 04:00:00 7.6 0 Calma 4 Sudoeste 0 -- -- 96
2019-10-11 03:00:00 8.3 0 Calma 4 Este 0 -- -- 95
2019-10-11 02:00:00 9 0 Calma 4 Oeste 0 -- -- 95
2019-10-11 01:00:00 9.8 0 Calma 4 Oeste 0 -- -- 93
2019-10-11 00:00:00 10.9 0 Calma 4 Sudoeste 0 -- -- 92
2019-10-10 23:00:00 11.9 0 Calma 4 Sudoeste 0 -- -- 89
2019-10-10 22:00:00 13.5 0 Calma 6 Oeste 0 -- -- 85
2019-10-10 21:00:00 15.2 0 Calma 17 Noroeste 0 -- -- 80
2019-10-10 20:00:00 17.3 3 Noroeste 22 Noroeste 0 -- -- 73
2019-10-10 19:00:00 19.3 9 Noroeste 24 Noroeste 0 -- -- 66
2019-10-10 18:00:00 21.1 9 Norte 29 Norte 0 -- -- 59
2019-10-10 17:00:00 21.6 11 Norte 24 Norte 0 -- -- 56
2019-10-10 16:00:00 21.7 12 Norte 27 Norte 0 -- -- 53
2019-10-10 15:00:00 21.6 12 Norte 22 Norte 0 -- -- 51
2019-10-10 14:00:00 20.6 8 Norte 17 Nordeste 0 -- -- 52
2019-10-10 13:00:00 19.1 4 Oeste 7 Nordeste 0 -- -- 55
2019-10-10 12:00:00 17.1 3 Sudeste 7 Sudeste 0 -- -- 61
2019-10-10 11:00:00 14.4 2 Sudeste 5 Sudeste 0 -- -- 73
2019-10-10 10:00:00 10.9 0 Calma 3 Noroeste 0 -- -- 92
2019-10-10 09:00:00 9.8 0 Calma 3 Noroeste 0 -- -- 95
2019-10-10 08:00:00 9.2 0 Calma 2 Norte 0 -- -- 96
2019-10-10 07:00:00 9 0 Calma 3 Sur 0 -- -- 95
2019-10-10 06:00:00 8.5 0 Calma 5 Sur 0 -- -- 94
2019-10-10 05:00:00 9.4 0 Calma 0 Calma 0 -- -- 91
2019-10-10 04:00:00 10.5 0 Calma 3 Noroeste 0 -- -- 90
2019-10-10 03:00:00 11.5 2 Norte 3 Oeste 0 -- -- 88
2019-10-10 02:00:00 13.1 0 Calma 5 Noroeste 0 -- -- 85
2019-10-10 01:00:00 13.7 4 Noroeste 6 Noroeste 0 -- -- 82
2019-10-10 00:00:00 14.3 0 Calma 7 Sudeste 0 -- -- 78
2019-10-09 23:00:00 14.9 3 Sur 6 Sur 0 -- -- 75
2019-10-09 22:00:00 15.1 0 Calma 6 Nordeste 0 -- -- 75
2019-10-09 21:00:00 16.3 4 Noroeste 19 Noroeste 0 -- -- 68
2019-10-09 20:00:00 16.1 6 Norte 22 Norte 0 -- -- 68
2019-10-09 19:00:00 17.3 10 Norte 26 Nordeste 0 -- -- 62
2019-10-09 18:00:00 18.5 12 Norte 28 Norte 0 -- -- 55
2019-10-09 17:00:00 19.4 15 Norte 33 Nordeste 0 -- -- 51
2019-10-09 16:00:00 20.1 13 Nordeste 31 Nordeste 0 -- -- 49
2019-10-09 15:00:00 20.1 12 Norte 28 Nordeste 0 -- -- 49
2019-10-09 14:00:00 19.8 12 Norte 25 Norte 0 -- -- 49
2019-10-09 13:00:00 19.6 10 Norte 20 Norte 0 -- -- 47
2019-10-09 12:00:00 18.8 8 Norte 19 Norte 0 -- -- 52
2019-10-09 11:00:00 16.4 2 Sudeste 4 Sudeste 0 -- -- 76
2019-10-09 10:00:00 12.1 2 Este 6 Noroeste 0 -- -- 93
2019-10-09 09:00:00 12 0 Calma 7 Sudoeste 0 -- -- 91
2019-10-09 08:00:00 12.4 0 Calma 7 Sudoeste 0 -- -- 89
2019-10-09 07:00:00 13.7 2 Noroeste 6 Oeste 0 -- -- 88
2019-10-09 06:00:00 14.4 3 Oeste 14 Oeste 0 -- -- 84
2019-10-09 05:00:00 15.3 4 Oeste 21 Norte 0 -- -- 76
2019-10-09 04:00:00 15.5 9 Norte 29 Norte 0 -- -- 71
2019-10-09 03:00:00 15.4 9 Norte 25 Nordeste 0 -- -- 78
2019-10-09 02:00:00 15.4 5 Norte 8 Norte 0 -- -- 82
2019-10-09 01:00:00 15.8 0 Calma 17 Norte 0 -- -- 80
2019-10-09 00:00:00 16.3 4 Oeste 20 Noroeste 0 -- -- 78
2019-10-08 23:00:00 16.7 9 Noroeste 27 Noroeste 0 -- -- 78
2019-10-08 22:00:00 17.2 9 Noroeste 24 Noroeste 0 -- -- 74
2019-10-08 21:00:00 17.4 10 Noroeste 30 Norte 0 -- -- 74
2019-10-08 20:00:00 17.3 12 Norte 31 Noroeste 0 -- -- 76
2019-10-08 19:00:00 18.7 17 Norte 38 Norte 0 -- -- 72
2019-10-08 18:00:00 19.9 14 Norte 37 Nordeste 0 -- -- 70
2019-10-08 17:00:00 21.5 17 Norte 45 Norte 0 -- -- 69
2019-10-08 16:00:00 24.3 21 Norte 41 Norte 0 -- -- 61
2019-10-08 15:00:00 26.4 12 Norte 27 Noroeste 0 -- -- 53
2019-10-08 14:00:00 24.9 2 Nordeste 5 Sur 0 -- -- 51
2019-10-08 13:00:00 21.4 3 Oeste 6 Noroeste -- -- -- 56
2019-10-08 12:00:00 17.3 2 Noroeste 4 Noroeste 0 -- -- 69
2019-10-08 11:00:00 13.2 0 Calma -- -- 0 -- -- 88
2019-10-08 10:00:00 8 0 Calma -- -- 0 -- -- 97
2019-10-08 09:00:00 7.5 0 Calma -- -- 0 -- -- 97
2019-10-08 08:00:00 7.7 0 Calma -- -- 0 -- -- 96
2019-10-08 07:00:00 8 0 Calma -- -- 0 -- -- 96
2019-10-08 06:00:00 8.4 0 Calma -- -- 0 -- -- 95
2019-10-08 05:00:00 8.7 0 Calma -- -- 0 -- -- 94
2019-10-08 04:00:00 9.2 0 Calma -- -- 0 -- -- 94
2019-10-08 03:00:00 9.9 0 Calma -- -- 0 -- -- 93
2019-10-08 02:00:00 10.4 0 Calma -- -- 0 -- -- 92
2019-10-08 01:00:00 11.2 0 Calma -- -- 0 -- -- 91
2019-10-08 00:00:00 12 0 Calma 2 Oeste 0 -- -- 87
2019-10-07 23:00:00 13 0 Calma 4 Noroeste 0 -- -- 85
2019-10-07 22:00:00 14.7 0 Calma 5 Sudoeste 0 -- -- 79
2019-10-07 21:00:00 16.9 0 Calma 7 Sudoeste 0 -- -- 70
2019-10-07 20:00:00 19.7 0 Calma 12 Noroeste 0 -- -- 59
2019-10-07 19:00:00 22.9 5 Noroeste 24 Norte 0 -- -- 50
2019-10-07 18:00:00 24.6 12 Noroeste 33 Norte 0 -- -- 43
2019-10-07 17:00:00 25.1 14 Norte 31 Noroeste 0 -- -- 36
2019-10-07 16:00:00 25.2 14 Norte 31 Norte 0 -- -- 34
2019-10-07 15:00:00 24.8 13 Norte 24 Norte 0 -- -- 37
2019-10-07 14:00:00 23.1 5 Norte 15 Nordeste 0 -- -- 48
2019-10-07 13:00:00 20.8 4 Norte 8 Norte 0 -- -- 54
2019-10-07 12:00:00 17.9 0 Calma 4 Sudoeste 0 -- -- 67
2019-10-07 11:00:00 14.5 0 Calma 4 Sudeste 0 -- -- 80
2019-10-07 10:00:00 10.2 0 Calma 2 Norte 0 -- -- 97
2019-10-07 09:00:00 9.9 0 Calma 2 Noroeste 0 -- -- 96
2019-10-07 08:00:00 10.2 0 Calma 4 Noroeste 0 -- -- 95
2019-10-07 07:00:00 10.6 0 Calma 3 Sudoeste 0 -- -- 95
2019-10-07 06:00:00 11.5 0 Calma 3 Este 0 -- -- 94
2019-10-07 05:00:00 12.5 0 Calma 4 Noroeste 0 -- -- 93
2019-10-07 04:00:00 13.5 0 Calma 3 Noroeste 0 -- -- 92
2019-10-07 03:00:00 14.2 0 Calma 2 Este 0 -- -- 90
2019-10-07 02:00:00 14.8 0 Calma 3 Sudoeste 0 -- -- 87
2019-10-07 01:00:00 14.9 0 Calma 4 Sudeste 0 -- -- 85
2019-10-07 00:00:00 15.5 0 Calma 5 Sur 0 -- -- 83
2019-10-06 23:00:00 16.3 0 Calma 12 Norte 0 -- -- 79
2019-10-06 22:00:00 16.7 2 Norte 12 Norte 0 -- -- 77
2019-10-06 21:00:00 16.9 5 Norte 24 Norte 0 -- -- 76
2019-10-06 20:00:00 17.7 9 Norte 23 Noroeste 0 -- -- 73
2019-10-06 19:00:00 18.5 16 Norte 35 Noroeste 0 -- -- 71
2019-10-06 18:00:00 20.1 14 Noroeste 30 Norte 0 -- -- 65
2019-10-06 17:00:00 20.9 13 Norte 33 Norte 0 -- -- 61
2019-10-06 16:00:00 20.9 15 Norte 36 Norte 0 -- -- 61
2019-10-06 15:00:00 21.4 10 Norte 31 Nordeste 0 -- -- 61
2019-10-06 14:00:00 21.3 10 Norte 28 Nordeste 0 -- -- 62
2019-10-06 13:00:00 20.4 6 Norte 29 Nordeste 0 -- -- 66
2019-10-06 12:00:00 16.3 4 Noroeste 8 Noroeste 0 -- -- 78
2019-10-06 11:00:00 14.4 0 Calma 8 Sudeste 0 -- -- 82
2019-10-06 10:00:00 12.9 2 Sudeste 8 Sur 0 -- -- 88
2019-10-06 09:00:00 11.9 0 Calma 10 Sudeste 0 -- -- 93
2019-10-06 08:00:00 11.4 3 Sur 6 Sur 0 -- -- 95
2019-10-06 07:00:00 11.8 0 Calma 4 Este 0 -- -- 95
2019-10-06 06:00:00 11.9 0 Calma 4 Oeste 0 -- -- 94
2019-10-06 05:00:00 12.2 0 Calma 2 Oeste 0 -- -- 93
2019-10-06 04:00:00 13.1 0 Calma 6 Nordeste 0 -- -- 91
2019-10-06 03:00:00 14.5 0 Calma 4 Noroeste 0 -- -- 89
2019-10-06 02:00:00 15.4 0 Calma 5 Nordeste 0 -- -- 87
2019-10-06 01:00:00 15.7 0 Calma 5 Noroeste 0 -- -- 86
2019-10-06 00:00:00 16.1 0 Calma 7 Sur 0 -- -- 83
2019-10-05 23:00:00 16.1 3 Noroeste 8 Nordeste 0 -- -- 84
2019-10-05 22:00:00 17 0 Calma 3 Oeste 0 -- -- 79
2019-10-05 21:00:00 17.4 0 Calma 12 Noroeste 0 -- -- 77
2019-10-05 20:00:00 17.7 8 Noroeste 34 Norte 0 -- -- 74
2019-10-05 19:00:00 17.8 10 Norte 36 Norte 0 -- -- 75
2019-10-05 18:00:00 18.8 16 Norte 41 Norte 0 -- -- 71
2019-10-05 17:00:00 20.1 16 Norte 42 Noroeste 0 -- -- 66
2019-10-05 16:00:00 20.6 10 Norte 34 Norte 0 -- -- 63
2019-10-05 15:00:00 20.1 18 Norte 36 Norte 0 -- -- 64
2019-10-05 14:00:00 20.4 16 Norte 28 Norte 0 -- -- 63
2019-10-05 13:00:00 19.8 4 Sur 11 Sudoeste 0 -- -- 67
2019-10-05 12:00:00 16.8 0 Calma 6 Sudeste 0 -- -- 75
2019-10-05 11:00:00 16.2 3 Este 8 Este 0 -- -- 78
2019-10-05 10:00:00 15.3 0 Calma 4 Sudeste 0 -- -- 87
2019-10-05 09:00:00 14.6 0 Calma 3 Oeste 0 -- -- 92
2019-10-05 08:00:00 14.4 0 Calma 3 Noroeste 0 -- -- 92
2019-10-05 07:00:00 14.5 0 Calma 3 Oeste 0 -- -- 91
2019-10-05 06:00:00 14.8 0 Calma 4 Sudeste 0 -- -- 90
2019-10-05 05:00:00 15.1 3 Sudeste 6 Sur 0 -- -- 89
2019-10-05 04:00:00 15.3 0 Calma 4 Norte 0 -- -- 87
2019-10-05 03:00:00 15.5 3 Sudoeste 5 Sudoeste 0 -- -- 85
2019-10-05 02:00:00 15.7 2 Noroeste 4 Noroeste 0 -- -- 83
2019-10-05 01:00:00 15.9 0 Calma 8 Norte 0 -- -- 81
2019-10-05 00:00:00 16.2 6 Norte 12 Norte 0 -- -- 79
2019-10-04 23:00:00 16.4 6 Norte 16 Norte 0 -- -- 78
2019-10-04 22:00:00 16.7 7 Norte 17 Norte 0 -- -- 79
2019-10-04 21:00:00 17 6 Norte 17 Nordeste 0 -- -- 78
2019-10-04 20:00:00 17.4 6 Norte 22 Norte 0 -- -- 77
2019-10-04 19:00:00 18.1 8 Noroeste 23 Norte 0 -- -- 74
2019-10-04 18:00:00 18.2 10 Norte 32 Noroeste 0 -- -- 73
2019-10-04 17:00:00 18.8 14 Norte 40 Norte 0 -- -- 71
2019-10-04 16:00:00 19.3 20 Norte 42 Norte 0 -- -- 71
2019-10-04 15:00:00 20.4 16 Noroeste 39 Norte 0 -- -- 70
2019-10-04 14:00:00 20.9 15 Norte 28 Norte 0 -- -- 68
2019-10-04 13:00:00 19.3 4 Norte 14 Nordeste 0 -- -- 74
2019-10-04 12:00:00 14.3 0 Calma 4 Norte 0 -- -- 83
2019-10-04 11:00:00 11.9 0 Calma 3 Norte 0 -- -- 93
2019-10-04 10:00:00 10.7 0 Calma 3 Noroeste 0 -- -- 96
2019-10-04 09:00:00 9.6 0 Calma 3 Sudoeste 0 -- -- 97
2019-10-04 08:00:00 8.4 0 Calma 3 Noroeste 0 -- -- 97
2019-10-04 07:00:00 8.4 0 Calma 4 Sur 0 -- -- 96
2019-10-04 06:00:00 8.7 0 Calma 4 Noroeste 0 -- -- 96
2019-10-04 05:00:00 9.1 0 Calma 3 Este 0 -- -- 95
2019-10-04 04:00:00 9.5 0 Calma 3 Noroeste 0 -- -- 95
2019-10-04 03:00:00 10.1 0 Calma 3 Sudoeste 0 -- -- 94
2019-10-04 02:00:00 10.6 0 Calma 4 Sudoeste 0 -- -- 93
2019-10-04 01:00:00 11.4 0 Calma 3 Oeste 0 -- -- 90
2019-10-04 00:00:00 12.2 0 Calma 3 Noroeste 0 -- -- 89
2019-10-03 23:00:00 13.2 0 Calma 4 Sudoeste 0 -- -- 85
2019-10-03 22:00:00 15 0 Calma 4 Sudoeste 0 -- -- 78
2019-10-03 21:00:00 17.3 0 Calma 13 Sudoeste 0 -- -- 70
2019-10-03 20:00:00 20.6 2 Sudeste 28 Noroeste 0 -- -- 58
2019-10-03 19:00:00 22.2 16 Noroeste 33 Norte 0 -- -- 52
2019-10-03 18:00:00 23.8 15 Norte 36 Norte 0 -- -- 44
2019-10-03 17:00:00 24.7 14 Norte 32 Norte 0 -- -- 43
2019-10-03 16:00:00 24.7 10 Norte 26 Norte 0 -- -- 40
2019-10-03 15:00:00 24.2 5 Noroeste 15 Noroeste 0 -- -- 44
2019-10-03 14:00:00 22.5 9 Noroeste 25 Norte 0 -- -- 51
2019-10-03 13:00:00 20.2 6 Norte 12 Nordeste 0 -- -- 55
2019-10-03 12:00:00 17.8 0 Calma 5 Sur 0 -- -- 67
2019-10-03 11:00:00 14 0 Calma 5 Sudeste 0 -- -- 79
2019-10-03 10:00:00 10.6 4 Sudeste 5 Sur 0 -- -- 94
2019-10-03 09:00:00 9.3 0 Calma 5 Sur 0 -- -- 96
2019-10-03 08:00:00 9.5 0 Calma 4 Este 0 -- -- 94
2019-10-03 07:00:00 10.5 0 Calma 3 Sudoeste 0 -- -- 93
2019-10-03 06:00:00 11.5 0 Calma 12 Sudeste 0 -- -- 91
2019-10-03 05:00:00 12.5 0 Calma 8 Este 0 -- -- 88
2019-10-03 04:00:00 13.2 0 Calma 4 Sudoeste 0 -- -- 88
2019-10-03 03:00:00 14.7 2 Sudoeste 4 Sudoeste 0 -- -- 83
2019-10-03 02:00:00 15.5 0 Calma 8 Norte 0 -- -- 82
2019-10-03 01:00:00 16 3 Norte 12 Norte 0 -- -- 78
2019-10-03 00:00:00 16.2 5 Norte 12 Norte 0 -- -- 78
2019-10-02 23:00:00 16.9 3 Noroeste 13 Norte 0 -- -- 75
2019-10-02 22:00:00 17.2 4 Noroeste 15 Norte 0 -- -- 73
2019-10-02 21:00:00 17.4 6 Noroeste 19 Norte 0 -- -- 72
2019-10-02 20:00:00 17.7 10 Noroeste 29 Noroeste 0 -- -- 70
2019-10-02 19:00:00 18.4 15 Norte 30 Norte 0 -- -- 68
2019-10-02 18:00:00 19.8 17 Norte 34 Norte 0 -- -- 61
2019-10-02 17:00:00 20.7 14 Norte 35 Norte 0 -- -- 57
2019-10-02 16:00:00 20.5 12 Norte 33 Norte 0 -- -- 55
2019-10-02 15:00:00 21.4 10 Norte 31 Norte 0 -- -- 52
2019-10-02 14:00:00 20.9 11 Norte 22 Nordeste 0 -- -- 52
2019-10-02 13:00:00 19.4 8 Norte 17 Noroeste 0 -- -- 54
2019-10-02 12:00:00 17.2 2 Noroeste 6 Oeste 0 -- -- 66
2019-10-02 11:00:00 14.7 3 Sur 10 Sudeste 0 -- -- 73
2019-10-02 10:00:00 11.8 0 Calma 4 Oeste 0 -- -- 89
2019-10-02 09:00:00 10.6 3 Sudoeste 6 Noroeste 0 -- -- 96
2019-10-02 08:00:00 10.7 0 Calma 9 Noroeste 0 -- -- 94
2019-10-02 07:00:00 11.2 0 Calma 8 Noroeste 0 -- -- 94
2019-10-02 06:00:00 11.7 4 Sudoeste 8 Sudeste 0 -- -- 91
2019-10-02 05:00:00 12.2 4 Sur 17 Sudeste 0 -- -- 92
2019-10-02 04:00:00 12.2 4 Este 12 Sudeste 0 -- -- 90
2019-10-02 03:00:00 12.7 4 Sudoeste 13 Sudeste 0 -- -- 90
2019-10-02 02:00:00 14.3 8 Sudeste 16 Sudeste 0 -- -- 86
2019-10-02 01:00:00 14.7 2 Sudoeste 10 Sudeste 0 -- -- 84
2019-10-02 00:00:00 16.1 6 Sur 15 Sudeste 0 -- -- 82
2019-10-01 23:00:00 16.9 4 Sur 11 Sur 0 -- -- 79
2019-10-01 22:00:00 17.1 4 Sur 8 Sudeste 0 -- -- 80
2019-10-01 21:00:00 18 4 Noroeste 18 Noroeste 0 -- -- 76
2019-10-01 20:00:00 18.9 10 Norte 27 Norte 0 -- -- 72
2019-10-01 19:00:00 19.7 12 Norte 36 Noroeste 0 -- -- 70
2019-10-01 18:00:00 20.5 14 Norte 44 Noroeste 0 -- -- 69
2019-10-01 17:00:00 21.4 18 Noroeste 36 Noroeste 0 -- -- 68
2019-10-01 16:00:00 22.5 14 Norte 38 Norte 0 -- -- 63
2019-10-01 15:00:00 22.8 18 Norte 37 Norte 0 -- -- 60
2019-10-01 14:00:00 23.3 15 Norte 32 Norte 0 -- -- 57
2019-10-01 13:00:00 23 12 Norte 23 Norte 0 -- -- 56
2019-10-01 12:00:00 20.5 2 Sudeste 13 Nordeste 0 -- -- 76
2019-10-01 11:00:00 17.9 0 Calma 5 Sudeste 0 -- -- 84
2019-10-01 10:00:00 14.4 4 Nordeste 8 Sudeste 0 -- -- 97
2019-10-01 09:00:00 13.4 2 Noroeste 4 Sudoeste 0 -- -- 97
2019-10-01 08:00:00 12.9 0 Calma 4 Sudoeste 0 -- -- 96
2019-10-01 07:00:00 13.4 0 Calma 5 Oeste 0 -- -- 96
2019-10-01 06:00:00 14.1 2 Nordeste 6 Sur 0 -- -- 95
2019-10-01 05:00:00 14.7 3 Sur 5 Sudeste 0 -- -- 95
2019-10-01 04:00:00 15.2 0 Calma 5 Sudoeste 0 -- -- 94
2019-10-01 03:00:00 15.5 3 Norte 6 Norte 0 -- -- 93
2019-10-01 02:00:00 15.6 0 Calma 2 Oeste 0 -- -- 93
2019-10-01 01:00:00 15.8 0 Calma 5 Sudeste 0 -- -- 91
2019-10-01 00:00:00 17.3 0 Calma 5 Sudoeste 0 -- -- 89
2019-09-30 23:00:00 19 2 Sur 16 Nordeste 0 -- -- 84
2019-09-30 22:00:00 21 6 Noroeste 23 Norte 0 -- -- 74
2019-09-30 21:00:00 22.1 12 Norte 26 Noroeste 0 -- -- 68
2019-09-30 20:00:00 23.4 7 Norte 34 Noroeste 0 -- -- 65
2019-09-30 19:00:00 25.1 9 Norte 30 Noroeste 0 -- -- 60
2019-09-30 18:00:00 26.8 15 Noroeste 33 Norte 0 -- -- 54
2019-09-30 17:00:00 27.9 9 Norte 18 Norte 0 -- -- 50
2019-09-30 16:00:00 27.4 8 Norte 24 Norte 0 -- -- 50
2019-09-30 15:00:00 26.9 8 Norte 18 Norte 0 -- -- 50
2019-09-30 14:00:00 25.7 8 Nordeste 15 Este 0 -- -- 51
2019-09-30 13:00:00 22.8 4 Oeste 7 Noroeste 0 -- -- 60
2019-09-30 12:00:00 19 0 Calma 3 Sudeste 0 -- -- 69
2019-09-30 11:00:00 15.1 0 Calma 4 Nordeste 0 -- -- 84
2019-09-30 10:00:00 9.6 0 Calma 2 Este 0 -- -- 98
2019-09-30 09:00:00 9.1 0 Calma 3 Sudoeste 0 -- -- 97
2019-09-30 08:00:00 9.2 0 Calma 3 Noroeste 0 -- -- 96
2019-09-30 07:00:00 9.7 0 Calma 3 Noroeste 0 -- -- 96
2019-09-30 06:00:00 10.3 0 Calma 4 Noroeste 0 -- -- 95
2019-09-30 05:00:00 10.6 0 Calma 4 Noroeste 0 -- -- 94
2019-09-30 04:00:00 11.2 0 Calma 3 Noroeste 0 -- -- 94
2019-09-30 03:00:00 12.1 0 Calma 3 Noroeste 0 -- -- 92
2019-09-30 02:00:00 13.1 0 Calma 2 Oeste 0 -- -- 90
2019-09-30 01:00:00 14 0 Calma 3 Noroeste 0 -- -- 88
2019-09-30 00:00:00 15.4 0 Calma 9 Sudeste 0 -- -- 83
2019-09-29 23:00:00 17.2 4 Sur 9 Sur 0 -- -- 76
2019-09-29 22:00:00 19.4 0 Calma 24 Norte 0 -- -- 72
2019-09-29 21:00:00 20.8 10 Norte 26 Norte 0 -- -- 65
2019-09-29 20:00:00 23 5 Norte 23 Norte 0 -- -- 51
2019-09-29 19:00:00 24.7 8 Norte 29 Norte 0 -- -- 44
2019-09-29 18:00:00 26.2 13 Norte 36 Norte 0 -- -- 38
2019-09-29 17:00:00 26.6 13 Norte 41 Norte 0 -- -- 34
2019-09-29 16:00:00 27.2 17 Noroeste 47 Norte 0 -- -- 32
2019-09-29 15:00:00 27.4 19 Norte 39 Noroeste 0 -- -- 28
2019-09-29 14:00:00 27 9 Norte 22 Norte 0 -- -- 34
2019-09-29 13:00:00 23.3 2 Noroeste 12 Norte 0 -- -- 41
2019-09-29 12:00:00 18 3 Noroeste 7 Noroeste 0 -- -- 61
2019-09-29 11:00:00 13 0 Calma 4 Sudeste 0 -- -- 81
2019-09-29 10:00:00 7.4 2 Este 4 Noroeste 0 -- -- 98
2019-09-29 09:00:00 6.6 0 Calma 4 Sur 0 -- -- 98
2019-09-29 08:00:00 6.9 0 Calma 5 Este 0 -- -- 97
2019-09-29 07:00:00 7.3 2 Nordeste 6 Oeste 0 -- -- 97
2019-09-29 06:00:00 7.8 0 Calma 3 Noroeste 0 -- -- 96
2019-09-29 05:00:00 8.4 0 Calma 4 Este 0 -- -- 96
2019-09-29 04:00:00 9.2 0 Calma 4 Este 0 -- -- 95
2019-09-29 03:00:00 9.9 0 Calma 4 Sudeste 0 -- -- 95
2019-09-29 02:00:00 10.9 0 Calma 5 Este 0 -- -- 95
2019-09-29 01:00:00 11.6 0 Calma 4 Sur 0 -- -- 93
2019-09-29 00:00:00 12.5 0 Calma 5 Noroeste 0 -- -- 92
2019-09-28 23:00:00 13.6 0 Calma 4 Noroeste 0 -- -- 88
2019-09-28 22:00:00 15 3 Sudoeste 11 Sudoeste 0 -- -- 81
2019-09-28 21:00:00 17.3 3 Sudoeste 6 Sur 0 -- -- 73
2019-09-28 20:00:00 20 3 Noroeste 19 Norte 0 -- -- 70
2019-09-28 19:00:00 22.6 9 Noroeste 31 Norte 0 -- -- 61
2019-09-28 18:00:00 23.6 12 Noroeste 30 Oeste 0 -- -- 56
2019-09-28 17:00:00 23.2 15 Norte 30 Norte 0 -- -- 62
2019-09-28 16:00:00 24 11 Norte 23 Norte 0 -- -- 57
2019-09-28 15:00:00 23.8 5 Norte 14 Nordeste 0 -- -- 54
2019-09-28 14:00:00 22.1 5 Norte 16 Norte 0 -- -- 56
2019-09-28 13:00:00 20.8 8 Norte 15 Nordeste 0 -- -- 61
2019-09-28 12:00:00 19.3 7 Nordeste 11 Norte 0 -- -- 64
2019-09-28 11:00:00 16.7 3 Sudeste 8 Sudeste 0 -- -- 79
2019-09-28 10:00:00 15.5 6 Sudeste 8 Sudeste 0 -- -- 88
2019-09-28 09:00:00 15 0 Calma -- -- 0 -- -- 93
2019-09-28 08:00:00 14.8 0 Calma 2 Sudoeste 0 -- -- 92
2019-09-28 07:00:00 14.8 2 Oeste 4 Sudoeste 0 -- -- 92
2019-09-28 06:00:00 14.9 0 Calma 3 Sudoeste 0 -- -- 93
2019-09-28 05:00:00 15 2 Oeste 4 Sudoeste 0 -- -- 92
2019-09-28 04:00:00 15.2 0 Calma 7 Oeste 0 -- -- 91
2019-09-28 03:00:00 15.2 0 Calma 5 Noroeste 0 -- -- 90
2019-09-28 02:00:00 15.5 0 Calma 7 Sudeste 0 -- -- 88
2019-09-28 01:00:00 15.7 4 Sudeste 9 Sur 0 -- -- 88
2019-09-28 00:00:00 16 5 Sur 9 Sudeste 0 -- -- 86
2019-09-27 23:00:00 16.8 3 Sudeste 26 Norte 0 -- -- 77
2019-09-27 22:00:00 17 10 Noroeste 26 Noroeste 0 -- -- 74
2019-09-27 21:00:00 17.3 12 Noroeste 30 Noroeste 0 -- -- 75
2019-09-27 20:00:00 17.7 7 Norte 21 Norte 0 -- -- 76
2019-09-27 19:00:00 18.6 8 Noroeste 32 Norte 0 -- -- 77
2019-09-27 18:00:00 19 16 Noroeste 44 Norte 0 -- -- 78
2019-09-27 17:00:00 20.7 24 Norte 48 Norte 0 -- -- 73
2019-09-27 16:00:00 22.6 20 Norte 35 Norte 0 -- -- 65
2019-09-27 15:00:00 24.3 9 Noroeste 31 Norte 0 -- -- 52
2019-09-27 14:00:00 23.6 15 Norte 28 Norte 0 -- -- 55
2019-09-27 13:00:00 21.9 4 Noroeste 9 Noroeste 0 -- -- 64
2019-09-27 12:00:00 19.6 3 Oeste 8 Sur 0 -- -- 68
2019-09-27 11:00:00 17.1 2 Oeste 8 Sur 0 -- -- 75
2019-09-27 10:00:00 15.4 6 Sur 10 Sur 0 -- -- 81
2019-09-27 09:00:00 15.1 2 Sudoeste 12 Sur 0 -- -- 83
2019-09-27 08:00:00 15.4 4 Sudeste 9 Sur 0 -- -- 82
2019-09-27 07:00:00 15.8 6 Sudeste 9 Sudeste 0 -- -- 82
2019-09-27 06:00:00 16 5 Sur 14 Sur 0 -- -- 82
2019-09-27 05:00:00 16.2 7 Sudeste 10 Sur 0 -- -- 83
2019-09-27 04:00:00 15.9 0 Calma 8 Sudoeste 0 -- -- 86
2019-09-27 03:00:00 15.9 4 Sudeste 8 Sudeste 0 -- -- 84
2019-09-27 02:00:00 15.6 0 Calma 3 Noroeste 0 -- -- 89
2019-09-27 01:00:00 15.5 0 Calma 12 Sur 0 -- -- 88
2019-09-27 00:00:00 15.1 5 Sudeste 10 Sur 0 -- -- 90
2019-09-26 23:00:00 15.9 0 Calma 5 Sudoeste 0 -- -- 87
2019-09-26 22:00:00 17.3 0 Calma 7 Noroeste 0 -- -- 83
2019-09-26 21:00:00 18.6 3 Noroeste 11 Noroeste 0 -- -- 80
2019-09-26 20:00:00 20.4 3 Norte 15 Noroeste 0 -- -- 74
2019-09-26 19:00:00 23.2 5 Noroeste 23 Norte 0 -- -- 63
2019-09-26 18:00:00 23.7 9 Norte 28 Noroeste 0 -- -- 62
2019-09-26 17:00:00 23.5 14 Norte 32 Noroeste 0 -- -- 61
2019-09-26 16:00:00 23.8 13 Noroeste 27 Norte 0 -- -- 58
2019-09-26 15:00:00 23.6 5 Norte 15 Nordeste 0 -- -- 56
2019-09-26 14:00:00 21.7 8 Nordeste 15 Nordeste 0 -- -- 60
2019-09-26 13:00:00 20.4 5 Noroeste 15 Norte 0 -- -- 64
2019-09-26 12:00:00 19.3 7 Nordeste 19 Norte 0 -- -- 68
2019-09-26 11:00:00 17.2 0 Calma 4 Noroeste 0 -- -- 80
2019-09-26 10:00:00 15.7 0 Calma 4 Oeste 0 -- -- 88
2019-09-26 09:00:00 15 0 Calma 0 Calma 0 -- -- 93
2019-09-26 08:00:00 14.8 0 Calma 3 Noroeste 0 -- -- 92
2019-09-26 07:00:00 14.8 0 Calma 4 Noroeste 0 -- -- 91
2019-09-26 06:00:00 14.9 0 Calma 3 Sudeste 0 -- -- 90
2019-09-26 05:00:00 14.8 0 Calma 2 Norte 0 -- -- 90
2019-09-26 04:00:00 14.7 0 Calma 4 Noroeste 0 -- -- 90
2019-09-26 03:00:00 14.6 0 Calma 0 Calma 0 -- -- 90
2019-09-26 02:00:00 14.4 0 Calma 9 Sudeste 0 -- -- 89
2019-09-26 01:00:00 14.4 0 Calma 3 Sudoeste 0 -- -- 88
2019-09-26 00:00:00 15.1 0 Calma 7 Sur 0 -- -- 84
2019-09-25 23:00:00 16.7 3 Sur 17 Noroeste 0 -- -- 78
2019-09-25 22:00:00 18.1 8 Noroeste 26 Norte 0 -- -- 72
2019-09-25 21:00:00 18.9 10 Norte 22 Norte 0 -- -- 70
2019-09-25 20:00:00 19.5 10 Norte 26 Norte 0 -- -- 69
2019-09-25 19:00:00 20.4 8 Norte 25 Norte 0 -- -- 65
2019-09-25 18:00:00 21.4 7 Norte 23 Nordeste 0 -- -- 61
2019-09-25 17:00:00 21.8 11 Norte 26 Noroeste 0 -- -- 58
2019-09-25 16:00:00 22.2 11 Noroeste 28 Norte 0 -- -- 57
2019-09-25 15:00:00 22.2 10 Norte 21 Norte 0 -- -- 54
2019-09-25 14:00:00 21.7 8 Norte 17 Nordeste 0 -- -- 49
2019-09-25 13:00:00 21.2 5 Nordeste 13 Nordeste 0 -- -- 53
2019-09-25 12:00:00 19.3 0 Calma 5 Este 0 -- -- 62
2019-09-25 11:00:00 16.1 0 Calma 5 Norte 0 -- -- 77
2019-09-25 10:00:00 13.4 3 Noroeste 11 Sur 0 -- -- 85
2019-09-25 09:00:00 12.6 6 Sudeste 11 Sudeste 0 -- -- 87
2019-09-25 08:00:00 12.2 3 Sur 5 Sudeste 0 -- -- 94
2019-09-25 07:00:00 12.8 0 Calma 4 Noroeste 0 -- -- 93
2019-09-25 06:00:00 13.3 2 Noroeste 6 Sur 0 -- -- 93
2019-09-25 05:00:00 13.1 0 Calma 6 Sur 0 -- -- 94
2019-09-25 04:00:00 13.7 0 Calma 6 Noroeste 0 -- -- 94
2019-09-25 03:00:00 14.6 3 Sur 5 Sudeste 0 -- -- 94
2019-09-25 02:00:00 15.1 0 Calma 4 Norte 0 -- -- 93
2019-09-25 01:00:00 15.2 0 Calma 5 Noroeste 0 -- -- 91
2019-09-25 00:00:00 15.8 3 Norte 7 Norte 0 -- -- 85
2019-09-24 23:00:00 16.3 0 Calma 15 Norte 0 -- -- 82
2019-09-24 22:00:00 17.2 9 Norte 29 Norte 0 -- -- 74
2019-09-24 21:00:00 17.3 15 Noroeste 35 Norte 0 -- -- 73
2019-09-24 20:00:00 17.7 13 Norte 29 Norte 0 -- -- 74
2019-09-24 19:00:00 18.1 12 Norte 33 Noroeste 0 -- -- 76
2019-09-24 18:00:00 18.5 15 Norte 45 Norte 0.2 -- -- 75
2019-09-24 17:00:00 19.6 14 Norte 36 Norte 0 -- -- 73
2019-09-24 16:00:00 20.4 11 Norte 32 Norte 0 -- -- 72
2019-09-24 15:00:00 20.4 16 Norte 37 Norte 0 -- -- 72
2019-09-24 14:00:00 21.3 15 Norte 36 Norte 0 -- -- 72
2019-09-24 13:00:00 21.1 8 Norte 27 Norte 0 -- -- 72
2019-09-24 12:00:00 21.5 12 Norte 27 Noroeste 0 -- -- 70
2019-09-24 11:00:00 21.7 9 Norte 20 Nordeste 0 -- -- 68
2019-09-24 10:00:00 19.3 7 Nordeste 13 Nordeste 0 -- -- 80
2019-09-24 09:00:00 18.3 2 Norte 12 Noroeste 0 -- -- 86
2019-09-24 08:00:00 18.2 3 Norte 12 Norte 0 -- -- 84
2019-09-24 07:00:00 19.9 3 Noroeste 20 Oeste 0.2 -- -- 76
2019-09-24 06:00:00 24.3 14 Sudeste 33 Sudeste 0 -- -- 45
2019-09-24 05:00:00 24.2 20 Sur 45 Sudeste 0 -- -- 46
2019-09-24 04:00:00 23.5 18 Sur 32 Sudeste 0 -- -- 49
2019-09-24 03:00:00 19.6 11 Sur 27 Sudeste 0 -- -- 62
2019-09-24 02:00:00 18 16 Sudeste 30 Sur 0 -- -- 71
2019-09-24 01:00:00 17.1 20 Sudeste 29 Sur 0 -- -- 77
2019-09-24 00:00:00 17.5 18 Sur 26 Sudeste 0 -- -- 78
2019-09-23 23:00:00 18 13 Sudeste 21 Sudeste 0 -- -- 77
2019-09-23 22:00:00 17.4 0 Calma 12 Sur 0 -- -- 87
2019-09-23 21:00:00 17.8 0 Calma 5 Oeste 0 -- -- 87
2019-09-23 20:00:00 19 3 Sur 6 Sudoeste 0 -- -- 84
2019-09-23 19:00:00 19.7 3 Oeste 13 Nordeste 0 -- -- 81
2019-09-23 18:00:00 21 7 Nordeste 16 Nordeste 0 -- -- 65
2019-09-23 17:00:00 21.2 8 Norte 13 Norte 0 -- -- 63
2019-09-23 16:00:00 21.5 3 Noroeste 8 Nordeste 0 -- -- 64
2019-09-23 15:00:00 21.7 4 Noroeste 9 Noroeste 0 -- -- 62
2019-09-23 14:00:00 20.4 2 Norte 6 Noroeste 0 -- -- 68
2019-09-23 13:00:00 18.3 0 Calma 6 Noroeste 0 -- -- 73
2019-09-23 12:00:00 16.4 4 Noroeste 11 Noroeste 0 -- -- 80
2019-09-23 11:00:00 14.6 3 Sudeste 9 Sur 0 -- -- 87
2019-09-23 10:00:00 11.9 2 Norte 5 Norte 0 -- -- 96
2019-09-23 09:00:00 11.2 0 Calma 3 Oeste 0 -- -- 97
2019-09-23 08:00:00 10.8 0 Calma 3 Noroeste 0 -- -- 97
2019-09-23 07:00:00 10.8 0 Calma 4 Sur 0 -- -- 97
2019-09-23 06:00:00 10.7 0 Calma 3 Noroeste 0 -- -- 97
2019-09-23 05:00:00 10.8 0 Calma 3 Oeste 0 -- -- 96
2019-09-23 04:00:00 10.8 0 Calma 3 Oeste 0 -- -- 96
2019-09-23 03:00:00 11.1 0 Calma 3 Este 0 -- -- 94
2019-09-23 02:00:00 12.1 0 Calma 4 Oeste 0 -- -- 93
2019-09-23 01:00:00 13.1 0 Calma 5 Oeste 0 -- -- 91
2019-09-23 00:00:00 14.3 0 Calma 5 Sudoeste 0 -- -- 90
2019-09-22 23:00:00 15.6 0 Calma 6 Sudoeste 0 -- -- 87
2019-09-22 22:00:00 16.5 4 Noroeste 18 Norte 0.2 -- -- 81
2019-09-22 21:00:00 17.8 4 Norte 19 Norte 0 -- -- 71
2019-09-22 20:00:00 18.1 9 Noroeste 23 Norte 0 -- -- 71
2019-09-22 19:00:00 18.1 8 Noroeste 27 Norte 0.4 -- -- 75
2019-09-22 18:00:00 19.1 10 Norte 31 Norte 0 -- -- 70
2019-09-22 17:00:00 21.4 14 Norte 34 Norte 0 -- -- 61
2019-09-22 16:00:00 20.8 16 Norte 35 Norte 0 -- -- 60
2019-09-22 15:00:00 22.1 15 Norte 31 Norte 0 -- -- 55
2019-09-22 14:00:00 23.1 7 Norte 18 Norte 0 -- -- 41
2019-09-22 13:00:00 21.4 3 Noroeste 9 Noroeste 0 -- -- 49
2019-09-22 12:00:00 18.5 3 Sur 6 Sur 0 -- -- 70
2019-09-22 11:00:00 16 4 Sudeste 9 Sudeste 0 -- -- 80
2019-09-22 10:00:00 13.7 2 Sudeste 10 Sudeste 0 -- -- 93
2019-09-22 09:00:00 12.5 0 Calma 5 Este 0 -- -- 96
2019-09-22 08:00:00 13 0 Calma 10 Este 0 -- -- 95
2019-09-22 07:00:00 13.5 3 Nordeste 9 Sur 0 -- -- 95
2019-09-22 06:00:00 13.7 2 Sur 5 Sur 0 -- -- 93
2019-09-22 05:00:00 14.6 2 Sudeste 5 Sudeste 0 -- -- 91
2019-09-22 04:00:00 15.6 2 Sur 19 Norte 0 -- -- 86
2019-09-22 03:00:00 16.4 8 Noroeste 25 Norte 0 -- -- 80
2019-09-22 02:00:00 17.7 9 Norte 18 Norte 0 -- -- 81
2019-09-22 01:00:00 18.6 2 Sudoeste 12 Sudeste 0.2 -- -- 90
2019-09-22 00:00:00 19.9 5 Sur 17 Sur 0.4 -- -- 81